Time;durP1;ratioP1;P1;durP2;ratioP2;P2;SDS_P1;SDS_P2;PMS_P1;PMS_P2;Temp;Humidity;BMP_temperature;BMP_pressure;BME280_temperature;BME280_humidity;BME280_pressure;Samples;Min_cycle;Max_cycle;Signal;HPM_P1;HPM_P2
2022/02/02 00:01:37;;;;;;;4.00;3.23;;;;;;;5.50;100.00;152774.31;5056221;28;20470;-79
2022/02/02 00:04:17;;;;;;;4.33;3.70;;;;;;;5.51;100.00;152776.88;5080782;28;20445;-79
2022/02/02 00:07:02;;;;;;;5.30;3.77;;;;;;;5.53;100.00;152782.06;5078768;28;20840;-80
2022/02/02 00:09:48;;;;;;;4.87;3.90;;;;;;;5.52;100.00;152780.78;5078822;28;20492;-80
2022/02/02 00:12:36;;;;;;;4.27;3.87;;;;;;;5.52;100.00;152779.47;5071699;28;20465;-79
2022/02/02 00:15:37;;;;;;;3.73;3.10;;;;;;;5.44;100.00;152758.84;5081463;28;20477;-80
2022/02/02 00:18:39;;;;;;;5.50;3.87;;;;;;;5.46;100.00;152765.28;5077451;28;20437;-80
2022/02/02 00:21:18;;;;;;;6.03;3.20;;;;;;;5.47;100.00;152766.59;5055265;28;20447;-80
2022/02/02 00:23:58;;;;;;;3.40;3.10;;;;;;;5.46;100.00;152765.28;5043593;28;20450;-79
2022/02/02 00:26:40;;;;;;;3.67;2.17;;;;;;;5.43;100.00;152756.25;5045056;28;20458;-80
2022/02/02 00:29:19;;;;;;;3.80;2.93;;;;;;;5.40;100.00;152748.56;5050361;28;20484;-80
2022/02/02 00:32:03;;;;;;;3.10;2.70;;;;;;;5.45;100.00;152761.44;5061051;28;20827;-80
2022/02/02 00:34:38;;;;;;;4.10;3.60;;;;;;;5.45;100.00;152761.44;5082187;28;20448;-79
2022/02/02 00:37:15;;;;;;;3.30;2.40;;;;;;;5.45;100.00;152762.69;5077722;28;20452;-79
2022/02/02 00:39:50;;;;;;;3.33;2.63;;;;;;;5.42;100.00;152755.00;5061595;28;20803;-79
2022/02/02 00:42:29;;;;;;;3.40;2.17;;;;;;;5.48;100.00;152769.19;5083198;28;20431;-80
2022/02/02 00:45:05;;;;;;;2.80;1.97;;;;;;;5.47;100.00;152766.59;5061327;28;20800;-80
2022/02/02 00:47:43;;;;;;;3.90;2.20;;;;;;;5.49;100.00;152771.72;5063669;28;21312;-80
2022/02/02 00:50:19;;;;;;;2.43;2.03;;;;;;;5.45;100.00;152761.44;5079783;28;20481;-79
2022/02/02 00:52:55;;;;;;;2.30;1.80;;;;;;;5.42;100.00;152753.69;5077649;28;20449;-79
2022/02/02 00:55:32;;;;;;;2.03;1.67;;;;;;;5.46;100.00;152764.00;5088600;28;20540;-79
2022/02/02 00:58:10;;;;;;;4.27;2.30;;;;;;;5.49;100.00;152771.72;5077265;28;20829;-80
2022/02/02 01:00:45;;;;;;;2.80;2.13;;;;;;;5.43;100.00;152756.25;5099812;28;20440;-79
2022/02/02 01:03:21;;;;;;;3.33;1.97;;;;;;;5.50;100.00;152774.31;5061911;28;20813;-80
2022/02/02 01:05:57;;;;;;;3.13;1.80;;;;;;;5.48;100.00;152769.19;5083360;28;20510;-80
2022/02/02 01:08:47;;;;;;;2.57;2.00;;;;;;;5.48;100.00;152770.44;5078297;28;20457;-80
2022/02/02 01:11:46;;;;;;;2.10;1.90;;;;;;;5.50;100.00;152774.31;5066965;28;20804;-80
2022/02/02 01:17:47;;;;;;;3.30;2.10;;;;;;;5.50;100.00;152774.31;5063688;28;20445;-79
2022/02/02 01:20:34;;;;;;;2.50;1.90;;;;;;;5.58;100.00;152794.97;5076295;28;20813;-80
2022/02/02 01:28:55;;;;;;;3.33;1.77;;;;;;;5.62;100.00;152805.25;5075458;28;20874;-79
2022/02/02 01:31:32;;;;;;;4.97;2.20;;;;;;;5.65;100.00;152813.00;5077116;28;20456;-79
2022/02/02 01:34:07;;;;;;;3.50;1.70;;;;;;;5.66;100.00;152814.28;5080720;28;20468;-80
2022/02/02 01:36:43;;;;;;;2.90;2.03;;;;;;;5.69;100.00;152823.34;5060898;28;20445;-80
2022/02/02 01:39:23;;;;;;;2.37;1.90;;;;;;;5.74;100.00;152834.94;5076853;28;20464;-80
2022/02/02 01:42:02;;;;;;;3.37;2.23;;;;;;;5.75;100.00;152838.78;5075553;28;20436;-79
2022/02/02 01:44:45;;;;;;;4.77;2.40;;;;;;;5.73;100.00;152833.63;5061190;28;20537;-79
2022/02/02 01:47:29;;;;;;;6.83;3.10;;;;;;;5.81;100.00;152852.97;5059433;28;20477;-80
2022/02/02 01:50:17;;;;;;;3.67;2.50;;;;;;;5.78;100.00;152845.22;5060893;28;20460;-80
2022/02/02 01:53:09;;;;;;;3.40;1.77;;;;;;;5.78;100.00;152846.53;5080766;28;20477;-80
2022/02/02 01:55:44;;;;;;;3.93;2.50;;;;;;;5.79;100.00;152847.81;5076875;28;20437;-79
2022/02/02 01:58:37;;;;;;;2.30;1.93;;;;;;;5.79;100.00;152849.13;5081899;28;20438;-80
2022/02/02 02:01:13;;;;;;;3.90;1.90;;;;;;;5.80;100.00;152851.66;5099848;28;20869;-80
2022/02/02 02:03:50;;;;;;;3.10;1.93;;;;;;;5.82;100.00;152856.88;5084538;28;20456;-80
2022/02/02 02:06:26;;;;;;;3.53;2.23;;;;;;;5.83;100.00;152859.41;5079004;28;20457;-80
2022/02/02 02:09:01;;;;;;;3.60;2.27;;;;;;;5.84;100.00;152860.72;5064206;28;20496;-80
2022/02/02 02:11:42;;;;;;;5.13;3.13;;;;;;;5.88;100.00;152872.34;5082549;28;20440;-80
2022/02/02 02:14:39;;;;;;;4.00;2.60;;;;;;;5.88;100.00;152872.34;5095418;28;20834;-80
2022/02/02 02:17:15;;;;;;;4.33;2.30;;;;;;;5.92;100.00;152882.69;5070954;28;20434;-79
2022/02/02 02:19:52;;;;;;;4.83;2.80;;;;;;;5.94;100.00;152887.84;5085788;28;20469;-80
2022/02/02 02:22:34;;;;;;;5.80;3.40;;;;;;;5.97;100.00;152895.59;5086873;28;20793;-80
2022/02/02 02:25:11;;;;;;;5.70;3.37;;;;;;;5.98;100.00;152898.16;5084481;28;20534;-80
2022/02/02 02:27:46;;;;;;;3.63;2.97;;;;;;;5.97;100.00;152895.59;5062919;28;21320;-80
2022/02/02 02:30:28;;;;;;;3.60;3.17;;;;;;;6.01;100.00;152905.88;5084784;28;20477;-80
2022/02/02 02:33:33;;;;;;;7.60;3.30;;;;;;;6.00;100.00;152903.34;5069059;28;20551;-79
2022/02/02 02:36:36;;;;;;;6.80;4.07;;;;;;;6.02;100.00;152907.19;5085279;28;20458;-79
2022/02/02 02:39:42;;;;;;;5.40;3.90;;;;;;;6.10;100.00;152929.13;5061543;28;20441;-80
2022/02/02 02:56:47;;;;;;;9.50;5.60;;;;;;;6.16;100.00;152943.31;5079359;28;20445;-80
2022/02/02 02:59:34;;;;;;;8.57;5.60;;;;;;;6.19;100.00;152951.06;5099005;28;20476;-80
2022/02/02 03:02:52;;;;;;;11.13;5.93;;;;;;;6.22;100.00;152957.53;5082595;28;20445;-79
2022/02/02 03:29:42;;;;;;;8.17;4.60;;;;;;;6.14;100.00;152939.44;5082138;28;20544;-79
2022/02/02 03:31:58;;;;;;;5.50;3.63;;;;;;;6.16;100.00;152942.03;5084953;28;20436;-80
2022/02/02 03:34:53;;;;;;;7.43;4.27;;;;;;;6.20;100.00;152953.63;5076673;28;20466;-79
2022/02/02 03:49:39;;;;;;;5.80;2.70;;;;;;;6.13;100.00;152936.88;5007729;28;20534;-79
2022/02/02 03:55:20;;;;;;;7.23;3.57;;;;;;;6.12;100.00;152934.28;5078271;28;20794;-79
2022/02/02 03:58:12;;;;;;;7.73;3.50;;;;;;;6.09;100.00;152925.22;5078615;28;20445;-80
2022/02/02 04:01:11;;;;;;;6.17;3.40;;;;;;;6.03;100.00;152911.09;5083596;28;20528;-80
2022/02/02 04:06:45;;;;;;;6.40;3.73;;;;;;;6.08;100.00;152922.69;5062194;28;20794;-80
2022/02/02 04:09:20;;;;;;;6.93;3.37;;;;;;;6.08;100.00;152923.97;5098097;28;20472;-80
2022/02/02 04:12:05;;;;;;;5.93;2.83;;;;;;;6.08;100.00;152923.97;5084202;28;20436;-80
2022/02/02 04:17:49;;;;;;;5.70;3.00;;;;;;;6.11;100.00;152931.72;5069836;28;20535;-80
2022/02/02 04:38:00;;;;;;;4.17;3.00;;;;;;;5.98;100.00;152898.16;5062461;28;20448;-79
2022/02/02 04:52:27;;;;;;;7.50;3.87;;;;;;;5.97;98.83;152895.59;5096390;28;20434;-79
2022/02/02 04:55:08;;;;;;;5.13;3.33;;;;;;;6.00;100.00;152903.34;5063969;28;20871;-80
2022/02/02 04:58:02;;;;;;;7.47;3.10;;;;;;;6.00;99.21;152903.34;5075419;28;20453;-80
2022/02/02 05:03:49;;;;;;;8.13;3.20;;;;;;;5.99;97.97;152900.75;5066240;28;20934;-80
2022/02/02 05:06:32;;;;;;;7.20;3.20;;;;;;;5.95;100.00;152890.44;5092425;28;20440;-80
2022/02/02 05:09:21;;;;;;;8.60;3.67;;;;;;;5.91;100.00;152880.09;5094459;28;20440;-80
2022/02/02 05:18:02;;;;;;;6.43;3.73;;;;;;;5.87;98.66;152869.81;5082576;28;20585;-79
2022/02/02 05:49:11;;;;;;;5.40;3.30;;;;;;;5.82;100.00;152855.56;5082804;28;20943;-79
2022/02/02 05:51:49;;;;;;;5.83;3.13;;;;;;;5.78;100.00;152846.53;5086236;28;20435;-80
2022/02/02 05:54:25;;;;;;;5.90;3.17;;;;;;;5.80;99.77;152851.66;5068049;28;20499;-80
2022/02/02 05:57:01;;;;;;;11.37;3.33;;;;;;;5.76;100.00;152841.38;5085592;28;20435;-80
2022/02/02 05:59:37;;;;;;;6.93;3.30;;;;;;;5.74;100.00;152836.22;5067730;28;20441;-79
2022/02/02 06:02:13;;;;;;;8.07;3.23;;;;;;;5.83;98.62;152858.13;5082702;28;20480;-79
2022/02/02 06:04:50;;;;;;;7.43;2.63;;;;;;;5.81;99.98;152852.97;5066897;28;20443;-79
2022/02/02 06:07:26;;;;;;;6.33;2.80;;;;;;;5.80;98.97;152851.66;5097537;28;20895;-80
2022/02/02 06:10:03;;;;;;;6.07;2.77;;;;;;;5.79;98.79;152849.13;5084283;28;20538;-80
2022/02/02 06:12:40;;;;;;;4.47;2.70;;;;;;;5.85;98.02;152863.38;5079526;28;20950;-80
2022/02/02 06:15:18;;;;;;;9.40;3.80;;;;;;;5.82;97.25;152855.56;5083801;28;20458;-80
2022/02/02 06:17:53;;;;;;;7.30;2.90;;;;;;;5.82;98.68;152856.88;5081290;28;20441;-79
2022/02/02 06:20:31;;;;;;;5.70;3.00;;;;;;;5.88;98.80;152871.06;5062599;28;20444;-80
2022/02/02 06:23:14;;;;;;;9.80;3.40;;;;;;;5.93;97.90;152884.00;5082613;28;20475;-80
2022/02/02 06:25:52;;;;;;;7.23;2.90;;;;;;;5.92;96.98;152882.69;5101384;28;20460;-80
2022/02/02 06:28:32;;;;;;;7.90;2.80;;;;;;;5.91;94.80;152878.81;5056109;28;20861;-79
2022/02/02 06:31:07;;;;;;;6.60;3.40;;;;;;;5.99;94.33;152900.75;5085002;28;20464;-80
2022/02/02 06:33:43;;;;;;;9.60;4.10;;;;;;;6.01;94.59;152904.66;5084992;28;20444;-80
2022/02/02 06:36:21;;;;;;;14.23;3.60;;;;;;;6.05;95.97;152914.94;5080150;28;20446;-80
2022/02/02 06:38:57;;;;;;;6.30;3.63;;;;;;;5.98;95.80;152896.91;5094756;28;20955;-79
2022/02/02 06:41:32;;;;;;;5.30;3.67;;;;;;;5.94;97.26;152887.84;5062241;28;20445;-79
2022/02/02 06:44:08;;;;;;;6.37;3.50;;;;;;;5.96;96.37;152893.00;5080319;28;20455;-79
2022/02/02 06:46:44;;;;;;;7.73;3.10;;;;;;;5.99;98.54;152899.44;5079690;28;20441;-79
2022/02/02 06:49:20;;;;;;;9.60;4.03;;;;;;;5.96;96.68;152893.00;5080410;28;20455;-79
2022/02/02 06:52:04;;;;;;;6.60;4.27;;;;;;;6.06;95.99;152918.78;5063337;28;20440;-79
2022/02/02 06:54:50;;;;;;;10.03;3.13;;;;;;;5.99;97.33;152900.75;5081831;28;20448;-79
2022/02/02 06:57:37;;;;;;;9.63;3.80;;;;;;;5.96;99.43;152893.00;5095511;28;20814;-79
2022/02/02 07:00:24;;;;;;;9.57;3.70;;;;;;;5.96;99.54;152893.00;5094432;28;20498;-79
2022/02/02 07:03:12;;;;;;;6.73;3.40;;;;;;;5.98;97.53;152898.16;5078387;28;20436;-79
2022/02/02 07:06:03;;;;;;;6.47;3.67;;;;;;;6.02;98.87;152908.50;5078316;28;20525;-79
2022/02/02 07:08:55;;;;;;;6.63;3.47;;;;;;;6.00;99.56;152903.34;5057946;28;20445;-79
2022/02/02 07:11:39;;;;;;;7.60;4.60;;;;;;;5.99;100.00;152900.75;5052723;28;20483;-79
2022/02/02 07:14:22;;;;;;;12.53;4.47;;;;;;;6.03;99.60;152911.09;5071858;28;20468;-79
2022/02/02 07:17:11;;;;;;;7.40;3.57;;;;;;;5.99;100.00;152899.44;5080677;28;20467;-79
2022/02/02 07:20:01;;;;;;;6.30;4.00;;;;;;;6.02;98.59;152908.50;5079559;28;20943;-79
2022/02/02 07:25:48;;;;;;;10.20;3.37;;;;;;;6.00;100.00;152903.34;5065471;28;20765;-80
2022/02/02 07:28:29;;;;;;;11.37;3.80;;;;;;;5.99;100.00;152899.44;5078473;28;20958;-79
2022/02/02 07:31:20;;;;;;;8.20;3.63;;;;;;;6.00;98.90;152903.34;5094563;28;20464;-79
2022/02/02 07:34:09;;;;;;;5.60;3.23;;;;;;;5.93;100.00;152885.25;5056310;28;20440;-79
2022/02/02 07:36:50;;;;;;;6.90;3.93;;;;;;;6.00;100.00;152902.03;5079712;28;20948;-80
2022/02/02 07:39:27;;;;;;;8.63;4.03;;;;;;;6.00;100.00;152902.03;5062183;28;20460;-80
2022/02/02 07:42:08;;;;;;;6.43;3.97;;;;;;;6.02;100.00;152908.50;5072896;28;20793;-80
2022/02/02 07:44:46;;;;;;;13.80;4.20;;;;;;;6.04;100.00;152913.63;5077054;28;20452;-80
2022/02/02 07:47:22;;;;;;;4.83;3.30;;;;;;;6.05;100.00;152916.25;5077865;28;20454;-80
2022/02/02 07:50:00;;;;;;;6.70;3.73;;;;;;;6.11;100.00;152930.44;5079266;28;20491;-79
2022/02/02 07:52:36;;;;;;;5.67;4.10;;;;;;;6.19;100.00;152951.06;5058615;28;20551;-79
2022/02/02 07:55:13;;;;;;;5.60;4.00;;;;;;;6.13;100.00;152935.59;5075830;28;20453;-79
2022/02/02 07:57:52;;;;;;;6.07;3.60;;;;;;;6.08;100.00;152923.97;5070819;28;20440;-79
2022/02/02 08:00:30;;;;;;;8.13;3.97;;;;;;;6.08;100.00;152923.97;5066600;28;20441;-79
2022/02/02 08:03:09;;;;;;;13.10;4.23;;;;;;;6.09;100.00;152925.22;5053929;28;20472;-79
2022/02/02 08:05:47;;;;;;;5.57;3.83;;;;;;;6.06;100.00;152917.53;5064048;28;20899;-79
2022/02/02 08:08:31;;;;;;;8.67;4.03;;;;;;;6.07;100.00;152921.38;5073156;28;20445;-79
2022/02/02 08:11:09;;;;;;;14.47;4.90;;;;;;;6.07;100.00;152920.09;5086941;28;20462;-79
2022/02/02 08:13:48;;;;;;;11.37;3.97;;;;;;;6.09;100.00;152925.22;5069840;28;20445;-79
2022/02/02 08:16:24;;;;;;;14.30;4.73;;;;;;;6.06;100.00;152917.53;5081218;28;20440;-79
2022/02/02 08:19:00;;;;;;;7.30;4.37;;;;;;;6.07;100.00;152921.38;5065678;28;20451;-79
2022/02/02 08:21:35;;;;;;;10.10;4.87;;;;;;;6.09;100.00;152926.53;5063302;28;20448;-79
2022/02/02 08:24:12;;;;;;;10.60;4.67;;;;;;;6.05;100.00;152916.25;5064676;28;20453;-79
2022/02/02 08:26:48;;;;;;;9.40;3.93;;;;;;;6.13;100.00;152935.59;5061882;28;20448;-79
2022/02/02 08:29:26;;;;;;;8.83;3.90;;;;;;;6.19;100.00;152949.78;5077666;28;20566;-79
2022/02/02 08:32:02;;;;;;;8.47;3.13;;;;;;;6.12;100.00;152932.97;5066992;28;20463;-79
2022/02/02 08:34:44;;;;;;;5.30;3.20;;;;;;;6.08;100.00;152923.97;5074767;28;20439;-79
2022/02/02 08:37:27;;;;;;;9.80;4.20;;;;;;;6.05;100.00;152916.25;5082232;28;20833;-79
2022/02/02 08:40:18;;;;;;;12.33;4.10;;;;;;;6.05;100.00;152916.25;5077785;28;20445;-79
2022/02/02 08:42:56;;;;;;;6.37;4.10;;;;;;;6.01;100.00;152905.88;5072470;28;20659;-79
2022/02/02 08:45:34;;;;;;;7.50;4.37;;;;;;;6.06;100.00;152917.53;5072653;28;20447;-79
2022/02/02 08:48:13;;;;;;;8.50;3.43;;;;;;;6.08;100.00;152922.69;5074148;28;20814;-79
2022/02/02 08:50:53;;;;;;;6.57;4.30;;;;;;;6.04;100.00;152913.63;5060934;28;20468;-79
2022/02/02 08:53:36;;;;;;;8.07;3.80;;;;;;;6.00;100.00;152902.03;5060600;28;21665;-79
2022/02/02 08:59:08;;;;;;;9.43;4.27;;;;;;;5.96;100.00;152893.00;5069907;28;20477;-79
2022/02/02 09:01:45;;;;;;;9.40;4.37;;;;;;;5.97;100.00;152894.28;5076648;28;20445;-79
2022/02/02 09:07:14;;;;;;;6.97;4.07;;;;;;;6.02;100.00;152908.50;5079948;28;20444;-80
2022/02/02 09:09:57;;;;;;;9.13;4.00;;;;;;;6.07;100.00;152920.09;5078732;28;20445;-79
2022/02/02 09:24:20;;;;;;;14.33;4.40;;;;;;;6.23;100.00;152961.38;5095470;28;20441;-79
2022/02/02 09:32:58;;;;;;;12.70;4.43;;;;;;;6.38;100.00;153000.06;5075730;28;20804;-79
2022/02/02 09:35:35;;;;;;;7.50;4.40;;;;;;;6.39;100.00;153001.38;5080252;28;20437;-80
2022/02/02 09:38:10;;;;;;;11.80;4.47;;;;;;;6.46;100.00;153019.47;5057022;28;20533;-79
2022/02/02 09:43:56;;;;;;;8.80;4.77;;;;;;;6.48;100.00;153024.63;5059515;28;20441;-79
2022/02/02 09:46:36;;;;;;;16.13;5.00;;;;;;;6.53;100.00;153037.50;5074940;28;20444;-79
2022/02/02 09:49:17;;;;;;;10.03;4.80;;;;;;;6.64;100.00;153065.91;5081547;28;20444;-79
2022/02/02 09:51:59;;;;;;;6.47;3.90;;;;;;;6.68;100.00;153076.22;5081221;28;20464;-79
2022/02/02 09:54:42;;;;;;;8.23;4.37;;;;;;;6.68;100.00;153076.22;5062195;28;20931;-79
2022/02/02 10:00:33;;;;;;;7.80;3.90;;;;;;;6.63;100.00;153063.31;5063518;28;20562;-79
2022/02/02 10:06:30;;;;;;;8.97;4.80;;;;;;;6.66;100.00;153071.06;5075156;28;20852;-79
2022/02/02 10:09:20;;;;;;;9.73;4.10;;;;;;;6.67;100.00;153074.91;5078468;28;20502;-79
2022/02/02 10:12:20;;;;;;;9.67;4.30;;;;;;;6.68;100.00;153077.50;5079915;28;20491;-79
2022/02/02 10:15:03;;;;;;;5.63;4.00;;;;;;;6.82;100.00;153111.06;5068691;28;20471;-79
2022/02/02 10:17:38;;;;;;;11.03;3.70;;;;;;;6.97;99.70;153151.09;5079582;28;20440;-80
2022/02/02 10:20:18;;;;;;;11.63;3.80;;;;;;;7.02;99.18;153164.00;5076620;28;20441;-79
2022/02/02 10:22:57;;;;;;;8.77;3.90;;;;;;;7.11;99.89;153185.94;5079639;28;20440;-79
2022/02/02 10:25:36;;;;;;;9.63;3.90;;;;;;;7.12;99.55;153189.81;5082184;28;20896;-79
2022/02/02 10:28:13;;;;;;;5.90;3.20;;;;;;;7.02;99.29;153164.00;5064358;28;20454;-79
2022/02/02 10:30:52;;;;;;;4.90;2.80;;;;;;;6.94;99.90;153142.03;5064002;28;20529;-79
2022/02/02 10:33:29;;;;;;;10.30;3.30;;;;;;;6.92;100.00;153138.19;5066611;28;20456;-79
2022/02/02 10:36:13;;;;;;;6.37;3.30;;;;;;;6.94;100.00;153142.03;5078886;28;20436;-79
2022/02/02 10:39:00;;;;;;;8.00;3.30;;;;;;;6.98;100.00;153152.38;5065556;28;20440;-79
2022/02/02 10:41:45;;;;;;;5.83;3.60;;;;;;;7.11;100.00;153187.25;5069682;28;20998;-79
2022/02/02 10:44:25;;;;;;;10.03;4.30;;;;;;;7.18;100.00;153205.31;5075581;28;20972;-79
2022/02/02 10:47:11;;;;;;;6.13;4.60;;;;;;;7.14;100.00;153193.72;5076698;28;20519;-79
2022/02/02 10:49:56;;;;;;;5.37;3.50;;;;;;;7.15;100.00;153196.25;5065342;28;20487;-79
2022/02/02 10:52:41;;;;;;;8.23;4.17;;;;;;;7.15;100.00;153197.56;5079296;28;20461;-80
2022/02/02 10:55:55;;;;;;;6.17;4.37;;;;;;;7.19;100.00;153207.91;5095153;28;20936;-79
2022/02/02 10:59:05;;;;;;;8.00;3.87;;;;;;;7.23;100.00;153218.22;5072407;28;20536;-79
2022/02/02 11:01:45;;;;;;;9.80;3.80;;;;;;;7.27;100.00;153228.56;5057000;28;20460;-79
2022/02/02 11:07:14;;;;;;;6.90;4.27;;;;;;;7.24;97.97;153220.81;5063433;28;20445;-79
2022/02/02 11:09:50;;;;;;;9.30;4.17;;;;;;;7.26;95.39;153224.66;5076749;28;20547;-79
2022/02/02 11:12:31;;;;;;;7.20;3.77;;;;;;;7.39;95.97;153257.00;5077624;28;20472;-79
2022/02/02 11:15:17;;;;;;;6.73;4.10;;;;;;;7.42;96.23;153264.69;5081228;28;20453;-79
2022/02/02 11:18:03;;;;;;;6.60;3.43;;;;;;;7.45;95.95;153272.47;5076946;28;20531;-79
2022/02/02 11:20:41;;;;;;;9.07;4.47;;;;;;;7.48;96.39;153281.50;5078795;28;20941;-79
2022/02/02 11:23:16;;;;;;;7.27;3.97;;;;;;;7.48;95.51;153280.22;5079235;28;20452;-79
2022/02/02 11:25:55;;;;;;;6.80;4.17;;;;;;;7.40;98.51;153260.84;5081517;28;20432;-80
2022/02/02 11:28:33;;;;;;;6.10;4.27;;;;;;;7.40;92.77;153260.84;5079820;28;20863;-79
2022/02/02 11:31:16;;;;;;;5.47;3.20;;;;;;;7.52;95.03;153291.81;5101459;28;20452;-79
2022/02/02 11:33:53;;;;;;;6.97;3.40;;;;;;;7.57;94.72;153304.72;5084870;28;20440;-79
2022/02/02 11:36:33;;;;;;;13.60;4.33;;;;;;;7.56;92.54;153300.88;5081056;28;20527;-79
2022/02/02 11:39:35;;;;;;;6.60;3.17;;;;;;;7.56;93.06;153300.88;5077410;28;20456;-79
2022/02/02 11:42:54;;;;;;;8.43;3.90;;;;;;;7.56;92.53;153300.88;5081404;28;20432;-79
2022/02/02 11:45:34;;;;;;;11.23;3.70;;;;;;;7.60;90.93;153312.50;5081228;28;20473;-79
2022/02/02 11:48:18;;;;;;;5.10;3.53;;;;;;;7.70;91.36;153337.06;5059728;28;20527;-79
2022/02/02 11:50:53;;;;;;;6.13;3.40;;;;;;;7.72;89.55;153342.22;5078589;28;20441;-79
2022/02/02 11:53:58;;;;;;;9.27;4.07;;;;;;;7.77;92.50;153355.13;5079985;28;20460;-79
2022/02/02 11:57:12;;;;;;;8.80;3.40;;;;;;;7.76;90.23;153352.53;5079154;28;20435;-79
2022/02/02 12:00:04;;;;;;;6.00;3.27;;;;;;;7.74;88.05;153347.38;5079582;28;20440;-79
2022/02/02 12:03:11;;;;;;;8.87;3.17;;;;;;;7.67;87.75;153330.59;5081290;28;20460;-79
2022/02/02 12:06:08;;;;;;;7.90;3.67;;;;;;;7.64;85.42;153321.56;5083629;28;20476;-79
2022/02/02 12:08:55;;;;;;;7.53;3.63;;;;;;;7.63;89.61;153320.25;5079268;28;20436;-79
2022/02/02 12:19:03;;;;;;;10.90;3.90;;;;;;;7.68;89.48;153333.16;5097573;28;20468;-79
2022/02/02 12:44:36;;;;;;;6.47;3.53;;;;;;;7.99;80.45;153413.25;5080136;28;20518;-80
2022/02/02 12:45:34;;;;;;;7.93;3.57;;;;;;;7.90;85.10;153388.72;5073577;28;20432;-79
2022/02/02 12:48:15;;;;;;;6.87;3.73;;;;;;;7.87;87.16;153380.97;5075982;28;20928;-79
2022/02/02 12:54:09;;;;;;;6.60;3.57;;;;;;;7.74;90.16;153347.38;5091105;28;20490;-79
2022/02/02 12:56:54;;;;;;;4.73;2.90;;;;;;;7.72;88.44;153342.22;5075478;28;20528;-80
2022/02/02 12:59:53;;;;;;;7.17;3.20;;;;;;;7.75;89.88;153349.97;5078727;28;20443;-80
2022/02/02 13:02:29;;;;;;;5.23;3.20;;;;;;;7.68;94.22;153331.84;5063177;28;20464;-79
2022/02/02 13:05:06;;;;;;;6.07;3.63;;;;;;;7.63;95.30;153318.94;5079980;28;20463;-80
2022/02/02 13:07:42;;;;;;;5.33;4.20;;;;;;;7.60;93.79;153311.25;5075512;28;20942;-79
2022/02/02 13:10:22;;;;;;;5.87;3.20;;;;;;;7.66;91.85;153326.72;5061396;28;20807;-80
2022/02/02 13:13:07;;;;;;;5.20;3.47;;;;;;;7.69;90.74;153334.47;5061035;28;20467;-80
2022/02/02 13:15:49;;;;;;;5.47;2.93;;;;;;;7.72;92.44;153342.22;5061985;28;20543;-79
2022/02/02 13:18:33;;;;;;;7.57;3.20;;;;;;;7.74;93.57;153347.38;5077595;28;21531;-79
2022/02/02 13:21:14;;;;;;;3.73;2.80;;;;;;;7.74;93.31;153348.69;5071302;28;20449;-78
2022/02/02 13:23:58;;;;;;;7.90;3.37;;;;;;;7.75;93.24;153351.28;5059651;28;20453;-80
2022/02/02 13:26:38;;;;;;;4.10;3.40;;;;;;;7.71;96.47;153339.63;5076751;28;20473;-80
2022/02/02 13:29:24;;;;;;;5.40;2.50;;;;;;;7.54;99.05;153295.72;5073034;28;20472;-80
2022/02/02 13:32:09;;;;;;;3.80;3.00;;;;;;;7.36;100.00;153250.50;5057604;28;21161;-78
2022/02/02 13:34:53;;;;;;;3.70;2.20;;;;;;;7.29;100.00;153233.72;5063804;28;20553;-79
2022/02/02 13:37:46;;;;;;;4.07;2.30;;;;;;;7.26;100.00;153225.97;5054780;28;20445;-80
2022/02/02 13:43:41;;;;;;;4.37;2.23;;;;;;;7.22;100.00;153215.66;5081999;28;20437;-80
2022/02/02 13:46:38;;;;;;;4.03;2.20;;;;;;;7.12;100.00;153188.56;5057383;28;20437;-80
2022/02/02 13:49:30;;;;;;;4.97;1.97;;;;;;;7.15;100.00;153197.56;5083159;28;20479;-79
2022/02/02 13:55:13;;;;;;;5.77;2.93;;;;;;;7.13;100.00;153192.41;5081197;28;20441;-80
2022/02/02 13:58:06;;;;;;;8.33;2.20;;;;;;;7.11;100.00;153185.94;5081225;28;20449;-80
2022/02/02 14:00:55;;;;;;;5.40;1.97;;;;;;;7.06;100.00;153174.34;5063807;28;20452;-80
2022/02/02 14:04:01;;;;;;;3.40;2.10;;;;;;;7.14;100.00;153195.00;5078428;28;20543;-80
2022/02/02 14:06:47;;;;;;;5.67;2.07;;;;;;;7.22;100.00;153214.38;5080185;28;20448;-80
2022/02/02 14:09:35;;;;;;;5.60;2.47;;;;;;;7.16;100.00;153200.16;5061092;28;20449;-80
2022/02/02 14:32:22;;;;;;;7.77;3.83;;;;;;;7.17;100.00;153201.47;5069539;28;20509;-79
2022/02/02 14:34:58;;;;;;;4.90;3.50;;;;;;;7.10;100.00;153184.66;5079718;28;20445;-80
2022/02/02 14:37:41;;;;;;;4.37;3.13;;;;;;;7.07;100.00;153176.91;5069822;28;20437;-80
2022/02/02 14:40:24;;;;;;;6.53;3.97;;;;;;;7.05;100.00;153170.44;5091041;28;20799;-80
2022/02/02 14:43:03;;;;;;;7.27;3.27;;;;;;;7.04;100.00;153167.91;5079766;28;20448;-80
2022/02/02 14:45:43;;;;;;;5.77;3.57;;;;;;;7.02;100.00;153162.69;5082848;28;20476;-79
2022/02/02 14:48:21;;;;;;;6.47;3.77;;;;;;;6.99;100.00;153156.25;5052926;28;20464;-80
2022/02/02 14:51:03;;;;;;;6.57;4.17;;;;;;;6.96;100.00;153148.53;5073404;28;20450;-80
2022/02/02 14:53:48;;;;;;;6.43;4.00;;;;;;;6.90;100.00;153133.03;5080693;28;20484;-80
2022/02/02 15:23:45;;;;;;;9.83;4.07;;;;;;;6.74;100.00;153091.72;5062644;28;20445;-80
2022/02/02 15:28:41;;;;;;;4.03;2.87;;;;;;;6.77;100.00;153099.47;5056742;28;20449;-80
2022/02/02 15:31:17;;;;;;;4.17;3.20;;;;;;;6.72;100.00;153087.81;5077861;28;20456;-80
2022/02/02 15:33:54;;;;;;;4.83;4.30;;;;;;;6.67;100.00;153073.66;5060810;28;20567;-79
2022/02/02 15:39:23;;;;;;;4.77;3.10;;;;;;;6.67;100.00;153073.66;5067124;28;20654;-80
2022/02/02 15:42:16;;;;;;;8.40;2.83;;;;;;;6.64;100.00;153067.22;5072208;28;20477;-80
2022/02/02 15:54:45;;;;;;;6.50;3.03;;;;;;;6.60;100.00;153055.56;5067759;28;20453;-80
2022/02/02 16:02:49;;;;;;;7.07;2.90;;;;;;;6.44;100.00;153015.56;5071368;28;20438;-80
2022/02/02 16:05:30;;;;;;;3.63;2.00;;;;;;;6.40;100.00;153003.97;5058756;28;20931;-80
2022/02/02 16:08:07;;;;;;;4.23;2.83;;;;;;;6.38;100.00;152998.81;5091418;28;20441;-80
2022/02/02 16:10:50;;;;;;;3.90;2.90;;;;;;;6.36;100.00;152993.63;5061209;28;20440;-80
2022/02/02 16:13:33;;;;;;;3.77;2.77;;;;;;;6.32;100.00;152983.31;5080986;28;20498;-80
2022/02/02 16:16:26;;;;;;;3.97;2.90;;;;;;;6.33;100.00;152987.16;5081884;28;20539;-80
2022/02/02 16:19:12;;;;;;;4.83;3.00;;;;;;;6.32;100.00;152983.31;5059809;28;20453;-79
2022/02/02 16:24:59;;;;;;;3.50;2.30;;;;;;;6.32;100.00;152983.31;5090342;28;20951;-80
2022/02/02 16:36:19;;;;;;;3.40;1.93;;;;;;;6.24;100.00;152962.66;5097543;28;20534;-79
2022/02/02 16:39:03;;;;;;;4.53;2.60;;;;;;;6.24;100.00;152962.66;5097694;28;20443;-80
2022/02/02 16:44:32;;;;;;;7.40;2.60;;;;;;;6.26;100.00;152967.81;5052607;28;20507;-80
2022/02/02 16:47:07;;;;;;;4.23;2.37;;;;;;;6.28;100.00;152972.97;5075120;28;20525;-80
2022/02/02 16:49:43;;;;;;;4.10;2.17;;;;;;;6.31;100.00;152980.72;5074583;28;20451;-80
2022/02/02 16:52:24;;;;;;;4.10;2.57;;;;;;;6.34;100.00;152989.78;5056039;28;20974;-80
2022/02/02 16:55:05;;;;;;;4.80;2.40;;;;;;;6.37;100.00;152996.22;5072016;28;20449;-79
2022/02/02 16:57:51;;;;;;;3.67;2.90;;;;;;;6.42;100.00;153009.13;5081978;28;20432;-80
2022/02/02 17:32:36;;;;;;;4.70;3.17;;;;;;;6.38;100.00;152998.81;5040095;28;20474;-79
2022/02/02 17:35:30;;;;;;;4.90;2.70;;;;;;;6.37;100.00;152996.22;5073490;28;20473;-79
2022/02/02 17:38:14;;;;;;;5.33;3.60;;;;;;;6.33;100.00;152985.91;5059908;28;21188;-80
2022/02/02 18:13:14;;;;;;;6.90;4.63;;;;;;;6.23;100.00;152960.06;5073676;28;20513;-79
2022/02/02 18:19:00;;;;;;;7.45;5.53;;;;;;;6.26;100.00;152967.81;5073135;28;20425;-81
2022/02/02 18:21:36;;;;;;;13.07;8.50;;;;;;;6.25;100.00;152965.28;5076125;28;20307;-81
2022/02/02 18:24:17;;;;;;;9.53;7.20;;;;;;;6.22;100.00;152957.53;5062729;28;20542;-81
2022/02/02 18:26:58;;;;;;;15.50;8.80;;;;;;;6.25;100.00;152966.53;5083060;28;20436;-81
2022/02/02 18:29:42;;;;;;;17.10;9.90;;;;;;;6.23;100.00;152961.38;5065757;28;21009;-81
2022/02/02 18:32:34;;;;;;;11.73;8.67;;;;;;;6.23;100.00;152960.06;5081849;28;20477;-81
2022/02/02 18:35:16;;;;;;;15.37;9.83;;;;;;;6.21;100.00;152954.94;5086132;28;20950;-81
2022/02/02 18:47:05;;;;;;;9.97;7.70;;;;;;;6.17;100.00;152944.63;5025171;28;20549;-81
2022/02/02 18:49:58;;;;;;;7.13;5.80;;;;;;;6.14;100.00;152939.44;5075057;28;20448;-81